Aviation Digital Data Service (ADDS)

Output produced by TAFs form (0753 UTC 25 March 2017)
found at http://www.aviationweather.gov/adds/tafs/
 
METAR text: RJSN 250700Z 03010KT 9999 FEW040 07/M02 Q1021
Conditions at: RJSN (NIIGATA (CIV/JAS, JP) observed 0700 UTC 25 March 2017
Temperature: 7.0°C (45°F)
Dewpoint: -2.0°C (28°F) [RH = 53%]
Pressure (altimeter): 30.15 inches Hg (1021.0 mb)
Winds: from the NNE (30 degrees) at 12 MPH (10 knots; 5.2 m/s)
Visibility: 6 or more miles (10+ km)
Ceiling: at least 12,000 feet AGL
Clouds: few clouds at 4000 feet AGL
Weather: no significant weather observed at this time

Forecast for: RJSN (NIIGATA (CIV/JAS, JP)
Text: TAF RJSN 250508Z 2506/2612 02008KT 9999 FEW030
Forecast period: 0600 UTC 25 March 2017 to 1200 UTC 26 March 2017
Forecast type: FROM: standard forecast or significant change
Winds: from the NNE (20 degrees) at 9 MPH (8 knots; 4.2 m/s)
Visibility: 6 or more miles (10+ km)
Clouds: few clouds at 3000 feet AGL
Weather: no significant weather forecast for this period
Text: TEMPO 2609/2612 4000 -RA BR
Forecast period: 0900 to 1200 UTC 26 March 2017
Forecast type: TEMPORARY: The following changes expected for less than half the time period
Visibility: 2.49 miles (4.01 km)
Weather: -RA BR  (light rain, mist)